createdAt,value
2017-11-04T00:00:34.075Z,0
2017-11-04T00:01:14.625Z,0
2017-11-04T00:01:55.178Z,0
2017-11-04T00:02:35.728Z,0
2017-11-04T00:03:16.282Z,0
2017-11-04T00:03:56.815Z,0
2017-11-04T00:04:37.368Z,0
2017-11-04T00:05:17.945Z,0
2017-11-04T00:05:58.474Z,0
2017-11-04T00:06:39.004Z,0
2017-11-04T00:07:19.539Z,0
2017-11-04T00:08:00.111Z,0
2017-11-04T00:08:40.675Z,0
2017-11-04T00:09:21.212Z,0
2017-11-04T00:10:01.739Z,0
2017-11-04T00:10:42.305Z,0
2017-11-04T00:11:22.852Z,0
2017-11-04T00:12:03.416Z,0
2017-11-04T00:12:43.966Z,0
2017-11-04T00:13:24.510Z,0
2017-11-04T00:14:05.048Z,0
2017-11-04T00:14:45.664Z,0
2017-11-04T00:15:26.182Z,0
2017-11-04T00:16:06.728Z,0
2017-11-04T00:16:47.305Z,0
2017-11-04T00:17:27.843Z,0
2017-11-04T00:18:08.380Z,0
2017-11-04T00:18:48.924Z,0
2017-11-04T00:19:29.484Z,0
2017-11-04T00:20:10.046Z,0
2017-11-04T00:20:50.607Z,0
2017-11-04T00:21:31.145Z,0
2017-11-04T00:22:11.665Z,0
2017-11-04T00:22:52.218Z,0
2017-11-04T00:23:32.757Z,0
2017-11-04T00:24:13.304Z,0
2017-11-04T00:24:53.872Z,0
2017-11-04T00:25:34.425Z,0
2017-11-04T00:26:14.979Z,0
2017-11-04T00:26:55.534Z,0
2017-11-04T00:27:36.102Z,0
2017-11-04T00:28:16.662Z,0
2017-11-04T00:28:57.216Z,0
2017-11-04T00:29:37.755Z,0
2017-11-04T00:30:18.320Z,0
2017-11-04T00:30:58.856Z,0
2017-11-04T00:31:39.412Z,0
2017-11-04T00:32:19.954Z,0
2017-11-04T00:33:00.502Z,0
2017-11-04T00:33:41.055Z,0
2017-11-04T00:34:21.609Z,0
2017-11-04T00:35:02.153Z,0
2017-11-04T00:35:42.678Z,0
2017-11-04T00:36:23.231Z,0
2017-11-04T00:37:03.767Z,0
2017-11-04T00:37:44.342Z,0
2017-11-04T00:38:24.895Z,0
2017-11-04T00:39:05.461Z,0
2017-11-04T00:39:46.017Z,0
2017-11-04T00:40:26.558Z,0
2017-11-04T00:41:07.106Z,0
2017-11-04T00:41:47.656Z,0
2017-11-04T00:42:28.214Z,0
2017-11-04T00:43:08.755Z,0
2017-11-04T00:43:49.324Z,0
2017-11-04T00:44:29.882Z,0
2017-11-04T00:45:10.412Z,0
2017-11-04T00:45:50.943Z,0
2017-11-04T00:46:31.508Z,0
2017-11-04T00:47:12.060Z,0
2017-11-04T00:47:52.589Z,0
2017-11-04T00:48:33.151Z,0
2017-11-04T00:49:13.684Z,0
2017-11-04T00:49:54.265Z,0
2017-11-04T00:50:34.798Z,0
2017-11-04T00:51:15.372Z,0
2017-11-04T00:51:55.924Z,0
2017-11-04T00:52:36.480Z,0
2017-11-04T00:53:17.026Z,0
2017-11-04T00:53:57.579Z,0
2017-11-04T00:54:38.126Z,0
2017-11-04T00:55:18.690Z,0
2017-11-04T00:55:59.237Z,0
2017-11-04T00:56:39.783Z,0
2017-11-04T00:57:20.334Z,0
2017-11-04T00:58:00.891Z,0
2017-11-04T00:58:41.421Z,0
2017-11-04T00:59:21.997Z,0
2017-11-04T01:00:02.534Z,0
2017-11-04T01:00:43.065Z,0
2017-11-04T01:01:23.582Z,0
2017-11-04T01:02:04.164Z,0
2017-11-04T01:02:44.726Z,0
2017-11-04T01:03:25.277Z,0
2017-11-04T01:04:05.830Z,0
2017-11-04T01:04:46.381Z,0
2017-11-04T01:05:26.948Z,0
2017-11-04T01:06:07.483Z,0
2017-11-04T01:06:48.067Z,0
2017-11-04T01:07:28.585Z,0
2017-11-04T01:08:09.135Z,0
2017-11-04T01:08:49.681Z,0
2017-11-04T01:09:30.209Z,0
2017-11-04T01:10:10.745Z,0
2017-11-04T01:10:51.296Z,0
2017-11-04T01:11:31.874Z,0
2017-11-04T01:12:12.387Z,0
2017-11-04T01:12:52.890Z,0
2017-11-04T01:13:33.451Z,0
2017-11-04T01:14:13.957Z,0
2017-11-04T01:14:54.496Z,0
2017-11-04T01:15:35.059Z,0
2017-11-04T01:16:15.651Z,0
2017-11-04T01:16:56.208Z,0
2017-11-04T01:17:36.761Z,0
2017-11-04T01:18:17.295Z,0
2017-11-04T01:18:57.844Z,0
2017-11-04T01:19:38.383Z,0
2017-11-04T01:20:18.912Z,0
2017-11-04T01:20:59.447Z,0
2017-11-04T01:21:40.042Z,0
2017-11-04T01:22:20.545Z,0
2017-11-04T01:23:01.074Z,0
2017-11-04T01:23:41.622Z,0
2017-11-04T01:24:22.163Z,0
2017-11-04T01:25:02.711Z,0
2017-11-04T01:25:43.240Z,0
2017-11-04T01:26:23.779Z,0
2017-11-04T01:27:04.331Z,0
2017-11-04T01:27:44.913Z,0
2017-11-04T01:28:25.472Z,0
2017-11-04T01:29:06.058Z,0
2017-11-04T01:29:46.623Z,0
2017-11-04T01:30:27.180Z,0
2017-11-04T01:31:07.798Z,0
2017-11-04T01:31:48.376Z,0
2017-11-04T01:32:28.939Z,0
2017-11-04T01:33:09.481Z,0
2017-11-04T01:33:50.031Z,0
2017-11-04T01:34:30.582Z,0
2017-11-04T01:35:11.118Z,0
2017-11-04T01:35:51.657Z,0
2017-11-04T01:36:32.191Z,0
2017-11-04T01:37:12.730Z,0
2017-11-04T01:37:53.237Z,0
2017-11-04T01:38:33.793Z,0
2017-11-04T01:39:14.344Z,0
2017-11-04T01:39:54.898Z,0
2017-11-04T01:40:35.446Z,0
2017-11-04T01:41:15.979Z,0
2017-11-04T01:41:56.534Z,0
2017-11-04T01:42:37.088Z,0
2017-11-04T01:43:17.623Z,0
2017-11-04T01:43:58.181Z,0
2017-11-04T01:44:38.695Z,0
2017-11-04T01:45:19.224Z,0
2017-11-04T01:45:59.783Z,0
2017-11-04T01:46:40.329Z,0
2017-11-04T01:47:20.868Z,0
2017-11-04T01:48:01.440Z,0
2017-11-04T01:48:41.998Z,0
2017-11-04T01:49:22.530Z,0
2017-11-04T01:50:03.084Z,0
2017-11-04T01:50:43.634Z,0
2017-11-04T01:51:24.201Z,0
2017-11-04T01:52:04.734Z,0
2017-11-04T01:52:45.293Z,0
2017-11-04T01:53:25.843Z,0
2017-11-04T01:54:06.403Z,0
2017-11-04T01:54:46.952Z,0
2017-11-04T01:55:27.499Z,0
2017-11-04T01:56:08.050Z,0
2017-11-04T01:56:48.579Z,0
2017-11-04T01:57:29.134Z,0
2017-11-04T01:58:09.737Z,0
2017-11-04T01:58:50.246Z,0
2017-11-04T01:59:30.801Z,0
2017-11-04T02:00:11.338Z,0
2017-11-04T02:00:51.903Z,0
2017-11-04T02:01:32.453Z,0
2017-11-04T02:02:12.975Z,0
2017-11-04T02:02:53.572Z,0
2017-11-04T02:03:34.147Z,0
2017-11-04T02:04:15.379Z,0
2017-11-04T02:04:55.932Z,0
2017-11-04T02:05:36.481Z,0
2017-11-04T02:06:17.038Z,0
2017-11-04T02:06:57.586Z,0
2017-11-04T02:07:38.143Z,0
2017-11-04T02:08:18.691Z,0
2017-11-04T02:08:59.235Z,0
2017-11-04T02:09:39.796Z,0
2017-11-04T02:10:20.360Z,0
2017-11-04T02:11:00.918Z,0
2017-11-04T02:11:41.445Z,0
2017-11-04T02:12:22.005Z,0
2017-11-04T02:13:02.556Z,0
2017-11-04T02:13:43.084Z,0
2017-11-04T02:14:23.661Z,0
2017-11-04T02:15:04.206Z,0
2017-11-04T02:15:44.772Z,0
2017-11-04T02:16:25.298Z,0
2017-11-04T02:17:05.877Z,0
2017-11-04T02:17:46.402Z,0
2017-11-04T02:18:26.958Z,0
2017-11-04T02:19:07.516Z,0
2017-11-04T02:19:48.086Z,0
2017-11-04T02:20:28.602Z,0
2017-11-04T02:21:09.145Z,0
2017-11-04T02:21:49.698Z,0
2017-11-04T02:22:30.247Z,0
2017-11-04T02:23:10.818Z,0
2017-11-04T02:23:51.362Z,0
2017-11-04T02:24:31.927Z,0
2017-11-04T02:25:12.467Z,0
2017-11-04T02:25:53.039Z,0
2017-11-04T02:26:33.599Z,0
2017-11-04T02:27:14.113Z,0
2017-11-04T02:27:54.676Z,0
2017-11-04T02:28:35.209Z,0
2017-11-04T02:29:15.749Z,0
2017-11-04T02:29:56.308Z,0
2017-11-04T02:30:36.842Z,0
2017-11-04T02:31:17.398Z,0
2017-11-04T02:31:57.938Z,0
2017-11-04T02:32:38.495Z,0
2017-11-04T02:33:19.040Z,0
2017-11-04T02:33:59.560Z,0
2017-11-04T02:34:40.105Z,0
2017-11-04T02:35:20.635Z,0
2017-11-04T02:36:01.192Z,0
2017-11-04T02:36:41.736Z,0
2017-11-04T02:37:22.257Z,0
2017-11-04T02:38:02.788Z,0
2017-11-04T02:38:43.325Z,0
2017-11-04T02:39:23.889Z,0
2017-11-04T02:40:04.460Z,0
2017-11-04T02:40:45.037Z,0
2017-11-04T02:41:25.579Z,0
2017-11-04T02:42:06.120Z,0
2017-11-04T02:42:46.678Z,0
2017-11-04T02:43:27.208Z,0
2017-11-04T02:44:07.746Z,0
2017-11-04T02:44:48.304Z,0
2017-11-04T02:45:28.869Z,0
2017-11-04T02:46:09.412Z,0
2017-11-04T02:46:49.967Z,0
2017-11-04T02:47:30.516Z,0
2017-11-04T02:48:11.103Z,0
2017-11-04T02:48:51.635Z,0
2017-11-04T02:49:32.173Z,0
2017-11-04T02:50:12.766Z,0
2017-11-04T02:50:53.275Z,0
2017-11-04T02:51:33.809Z,0
2017-11-04T02:52:14.366Z,0
2017-11-04T02:52:54.899Z,0
2017-11-04T02:53:35.442Z,0
2017-11-04T02:54:16.003Z,0
2017-11-04T02:54:56.504Z,0
2017-11-04T02:55:37.067Z,0
2017-11-04T02:56:17.611Z,0
2017-11-04T02:56:58.164Z,0
2017-11-04T02:57:38.734Z,0
2017-11-04T02:58:19.267Z,0
2017-11-04T02:58:59.819Z,0
2017-11-04T02:59:40.389Z,0
2017-11-04T03:00:20.928Z,0
2017-11-04T03:01:01.478Z,0
2017-11-04T03:01:42.025Z,0
2017-11-04T03:02:22.571Z,0
2017-11-04T03:03:03.104Z,0
2017-11-04T03:03:43.663Z,0
2017-11-04T03:04:24.223Z,0
2017-11-04T03:05:04.752Z,0
2017-11-04T03:05:46.028Z,0
2017-11-04T03:06:25.841Z,0
2017-11-04T03:07:06.371Z,0
2017-11-04T03:07:46.946Z,0
2017-11-04T03:08:27.488Z,0
2017-11-04T03:09:08.057Z,0
2017-11-04T03:09:48.624Z,0
2017-11-04T03:10:29.177Z,0
2017-11-04T03:11:09.729Z,0
2017-11-04T03:11:50.292Z,0
2017-11-04T03:12:30.834Z,0
2017-11-04T03:13:11.382Z,0
2017-11-04T03:13:51.953Z,0
2017-11-04T03:14:32.487Z,0
2017-11-04T03:15:13.032Z,0
2017-11-04T03:15:53.573Z,0
2017-11-04T03:16:34.131Z,0
2017-11-04T03:17:14.699Z,0
2017-11-04T03:17:55.228Z,0
2017-11-04T03:18:35.790Z,0
2017-11-04T03:19:16.334Z,0
2017-11-04T03:19:56.914Z,0
2017-11-04T03:20:37.447Z,0
2017-11-04T03:21:17.991Z,0
2017-11-04T03:21:58.535Z,0
2017-11-04T03:22:39.086Z,0
2017-11-04T03:23:19.643Z,0
2017-11-04T03:24:00.163Z,0
2017-11-04T03:24:40.725Z,0
2017-11-04T03:25:21.275Z,0
2017-11-04T03:26:01.837Z,0
2017-11-04T03:26:42.373Z,0
2017-11-04T03:27:22.939Z,0
2017-11-04T03:28:03.489Z,0
2017-11-04T03:28:44.056Z,0
2017-11-04T03:29:24.602Z,0
2017-11-04T03:30:05.143Z,0
2017-11-04T03:30:45.642Z,0
2017-11-04T03:31:26.174Z,0
2017-11-04T03:32:06.694Z,0
2017-11-04T03:32:47.229Z,0
2017-11-04T03:33:27.786Z,0
2017-11-04T03:34:08.336Z,0
2017-11-04T03:34:48.881Z,0
2017-11-04T03:35:29.412Z,0
2017-11-04T03:36:09.961Z,0
2017-11-04T03:36:50.492Z,0
2017-11-04T03:37:31.039Z,0
2017-11-04T03:38:11.563Z,0
2017-11-04T03:38:52.115Z,0
2017-11-04T03:39:32.657Z,0
2017-11-04T03:40:13.208Z,0
2017-11-04T03:40:53.762Z,0
2017-11-04T03:41:34.313Z,0
2017-11-04T03:42:14.831Z,0
2017-11-04T03:42:55.387Z,0
2017-11-04T03:43:35.921Z,0
2017-11-04T03:44:16.445Z,0
2017-11-04T03:44:56.994Z,0
2017-11-04T03:45:37.554Z,0
2017-11-04T03:46:18.121Z,0
2017-11-04T03:46:58.665Z,0
2017-11-04T03:47:39.207Z,0
2017-11-04T03:48:19.751Z,0
2017-11-04T03:49:00.299Z,0
2017-11-04T03:49:40.832Z,0
2017-11-04T03:50:21.363Z,0
2017-11-04T03:51:01.875Z,0
2017-11-04T03:51:42.407Z,0
2017-11-04T03:52:22.979Z,0
2017-11-04T03:53:03.515Z,0
2017-11-04T03:53:44.061Z,0
2017-11-04T03:54:24.577Z,0
2017-11-04T03:55:05.119Z,0
2017-11-04T03:55:45.687Z,0
2017-11-04T03:56:26.216Z,0
2017-11-04T03:57:06.772Z,0
2017-11-04T03:57:47.317Z,0
2017-11-04T03:58:27.867Z,0
2017-11-04T03:59:08.407Z,0
2017-11-04T03:59:48.954Z,0
2017-11-04T04:00:29.495Z,0
2017-11-04T04:01:10.054Z,0
2017-11-04T04:01:50.597Z,0
2017-11-04T04:02:31.107Z,0
2017-11-04T04:03:11.653Z,0
2017-11-04T04:03:52.206Z,0
2017-11-04T04:04:32.742Z,0
2017-11-04T04:05:13.286Z,0
2017-11-04T04:05:53.893Z,0
2017-11-04T04:06:34.441Z,0
2017-11-04T04:07:14.980Z,0
2017-11-04T04:07:55.532Z,0
2017-11-04T04:08:36.065Z,0
2017-11-04T04:09:16.597Z,0
2017-11-04T04:09:57.118Z,0
2017-11-04T04:10:37.662Z,0
2017-11-04T04:11:18.223Z,0
2017-11-04T04:11:58.760Z,0
2017-11-04T04:12:39.310Z,0
2017-11-04T04:13:19.851Z,0
2017-11-04T04:14:00.385Z,0
2017-11-04T04:14:40.919Z,0
2017-11-04T04:15:21.446Z,0
2017-11-04T04:16:01.988Z,0
2017-11-04T04:16:42.551Z,0
2017-11-04T04:17:23.087Z,0
2017-11-04T04:18:03.655Z,0
2017-11-04T04:18:44.203Z,0
2017-11-04T04:19:24.755Z,0
2017-11-04T04:20:05.309Z,0
2017-11-04T04:20:45.859Z,0
2017-11-04T04:21:26.395Z,0
2017-11-04T04:22:06.942Z,0
2017-11-04T04:22:47.499Z,0
2017-11-04T04:23:28.045Z,0
2017-11-04T04:24:08.607Z,0
2017-11-04T04:24:49.172Z,0
2017-11-04T04:25:29.725Z,0
2017-11-04T04:26:10.269Z,0
2017-11-04T04:26:50.850Z,0
2017-11-04T04:27:31.369Z,0
2017-11-04T04:28:11.915Z,0
2017-11-04T04:28:52.464Z,0
2017-11-04T04:29:33.751Z,0
2017-11-04T04:30:14.297Z,0
2017-11-04T04:30:54.833Z,0
2017-11-04T04:31:35.384Z,0
2017-11-04T04:32:15.947Z,0
2017-11-04T04:32:56.497Z,0
2017-11-04T04:33:37.032Z,0
2017-11-04T04:34:17.562Z,0
2017-11-04T04:34:58.085Z,0
2017-11-04T04:35:38.634Z,0
2017-11-04T04:36:19.168Z,0
2017-11-04T04:36:59.705Z,0
2017-11-04T04:37:40.256Z,0
2017-11-04T04:38:20.804Z,0
2017-11-04T04:39:01.347Z,0
2017-11-04T04:39:41.892Z,0
2017-11-04T04:40:22.437Z,0
2017-11-04T04:41:02.992Z,0
2017-11-04T04:41:43.544Z,0
2017-11-04T04:42:24.098Z,0
2017-11-04T04:43:04.669Z,0
2017-11-04T04:43:45.225Z,0
2017-11-04T04:44:25.762Z,0
2017-11-04T04:45:06.299Z,0
2017-11-04T04:45:46.864Z,0
2017-11-04T04:46:27.397Z,0
2017-11-04T04:47:07.975Z,0
2017-11-04T04:47:48.500Z,0
2017-11-04T04:48:29.038Z,0
2017-11-04T04:49:09.569Z,0
2017-11-04T04:49:50.111Z,0
2017-11-04T04:50:30.760Z,0
2017-11-04T04:51:11.273Z,0
2017-11-04T04:51:51.801Z,0
2017-11-04T04:52:32.381Z,0
2017-11-04T04:53:12.900Z,0
2017-11-04T04:53:53.461Z,0
2017-11-04T04:54:34.051Z,0
2017-11-04T04:55:14.574Z,0
2017-11-04T04:55:55.127Z,0
2017-11-04T04:56:35.650Z,0
2017-11-04T04:57:16.201Z,0
2017-11-04T04:57:56.757Z,0
2017-11-04T04:58:37.314Z,0
2017-11-04T04:59:17.826Z,0
2017-11-04T04:59:58.364Z,0
2017-11-04T05:00:38.919Z,0
2017-11-04T05:01:19.470Z,0
2017-11-04T05:01:59.996Z,0
2017-11-04T05:02:40.553Z,0
2017-11-04T05:03:21.117Z,0
2017-11-04T05:04:01.675Z,0
2017-11-04T05:04:42.202Z,0
2017-11-04T05:05:22.763Z,0
2017-11-04T05:06:03.298Z,0
2017-11-04T05:06:43.851Z,0
2017-11-04T05:07:24.360Z,0
2017-11-04T05:08:04.905Z,0
2017-11-04T05:08:45.497Z,0
2017-11-04T05:09:26.045Z,0
2017-11-04T05:10:06.620Z,0
2017-11-04T05:10:47.170Z,0
2017-11-04T05:11:27.714Z,0
2017-11-04T05:12:08.261Z,0
2017-11-04T05:12:48.817Z,0
2017-11-04T05:13:29.407Z,0
2017-11-04T05:14:09.939Z,0
2017-11-04T05:14:50.446Z,0
2017-11-04T05:15:31.016Z,0
2017-11-04T05:16:11.636Z,0
2017-11-04T05:16:52.198Z,0
2017-11-04T05:17:32.754Z,0
2017-11-04T05:18:13.289Z,0
2017-11-04T05:18:53.870Z,0
2017-11-04T05:19:34.392Z,0
2017-11-04T05:20:14.943Z,0
2017-11-04T05:20:55.480Z,0
2017-11-04T05:21:36.028Z,0
2017-11-04T05:22:17.073Z,0
2017-11-04T05:22:57.114Z,0
2017-11-04T05:23:37.696Z,0
2017-11-04T05:24:18.241Z,0
2017-11-04T05:24:58.773Z,0
2017-11-04T05:25:39.295Z,0
2017-11-04T05:26:19.835Z,0
2017-11-04T05:27:00.394Z,0
2017-11-04T05:27:40.946Z,0
2017-11-04T05:28:21.466Z,0
2017-11-04T05:29:01.996Z,0
2017-11-04T05:29:42.556Z,0
2017-11-04T05:30:23.081Z,0
2017-11-04T05:31:03.625Z,0
2017-11-04T05:31:44.174Z,0
2017-11-04T05:32:24.716Z,0
2017-11-04T05:33:05.281Z,0
2017-11-04T05:33:45.841Z,0
2017-11-04T05:34:26.430Z,0
2017-11-04T05:35:06.987Z,0
2017-11-04T05:35:47.515Z,0
2017-11-04T05:36:28.061Z,0
2017-11-04T05:37:08.607Z,0
2017-11-04T05:37:49.168Z,0
2017-11-04T05:38:29.699Z,0
2017-11-04T05:39:10.260Z,0
2017-11-04T05:39:50.804Z,0
2017-11-04T05:40:31.378Z,0
2017-11-04T05:41:11.919Z,0
2017-11-04T05:41:52.473Z,0
2017-11-04T05:42:33.045Z,0
2017-11-04T05:43:13.595Z,0
2017-11-04T05:43:54.144Z,0
2017-11-04T05:44:34.694Z,0
2017-11-04T05:45:15.242Z,0
2017-11-04T05:45:55.794Z,0
2017-11-04T05:46:36.342Z,0
2017-11-04T05:47:16.882Z,0
2017-11-04T05:47:57.428Z,0
2017-11-04T05:48:37.980Z,0
2017-11-04T05:49:18.526Z,0
2017-11-04T05:49:59.149Z,0
2017-11-04T05:50:39.708Z,0
2017-11-04T05:51:20.239Z,0
2017-11-04T05:52:00.756Z,0
2017-11-04T05:52:41.298Z,0
2017-11-04T05:53:21.860Z,0
2017-11-04T05:54:02.404Z,0
2017-11-04T05:54:42.930Z,0
2017-11-04T05:55:23.483Z,0
2017-11-04T05:56:04.060Z,0
2017-11-04T05:56:44.585Z,0
2017-11-04T05:57:25.146Z,0
2017-11-04T05:58:05.695Z,0
2017-11-04T05:58:46.239Z,0
2017-11-04T05:59:26.743Z,0
2017-11-04T06:00:07.265Z,0
2017-11-04T06:00:47.815Z,0
2017-11-04T06:01:28.352Z,0
2017-11-04T06:02:08.909Z,0
2017-11-04T06:02:49.437Z,0
2017-11-04T06:03:29.996Z,0
2017-11-04T06:04:10.546Z,0
2017-11-04T06:04:51.089Z,0
2017-11-04T06:05:31.620Z,0
2017-11-04T06:06:12.171Z,0
2017-11-04T06:06:52.697Z,0
2017-11-04T06:07:33.240Z,0
2017-11-04T06:08:13.810Z,0
2017-11-04T06:08:54.348Z,0
2017-11-04T06:09:34.925Z,0
2017-11-04T06:10:15.449Z,0
2017-11-04T06:10:56.013Z,0
2017-11-04T06:11:36.539Z,0
2017-11-04T06:12:17.105Z,0
2017-11-04T06:12:57.638Z,0
2017-11-04T06:13:38.175Z,0
2017-11-04T06:14:18.773Z,0
2017-11-04T06:14:59.359Z,0
2017-11-04T06:15:39.916Z,0
2017-11-04T06:16:20.467Z,0
2017-11-04T06:17:01.016Z,0
2017-11-04T06:17:41.565Z,0
2017-11-04T06:18:22.134Z,0
2017-11-04T06:19:02.680Z,0
2017-11-04T06:19:43.209Z,0
2017-11-04T06:20:23.747Z,0
2017-11-04T06:21:04.256Z,0
2017-11-04T06:21:44.812Z,0
2017-11-04T06:22:25.362Z,0
2017-11-04T06:23:05.873Z,0
2017-11-04T06:23:46.429Z,0
2017-11-04T06:24:26.962Z,0
2017-11-04T06:25:07.476Z,0
2017-11-04T06:25:48.027Z,0
2017-11-04T06:26:28.584Z,0
2017-11-04T06:27:09.206Z,0
2017-11-04T06:27:49.925Z,0
2017-11-04T06:28:30.480Z,0
2017-11-04T06:29:11.019Z,0
2017-11-04T06:29:51.642Z,0
2017-11-04T06:30:32.198Z,5
2017-11-04T06:31:12.779Z,5
2017-11-04T06:31:53.313Z,5
2017-11-04T06:32:33.842Z,5
2017-11-04T06:33:14.460Z,5
2017-11-04T06:33:54.910Z,5
2017-11-04T06:34:35.445Z,5
2017-11-04T06:35:15.969Z,5
2017-11-04T06:35:56.560Z,5
2017-11-04T06:36:37.028Z,5
2017-11-04T06:37:17.627Z,5
2017-11-04T06:37:58.184Z,5
2017-11-04T06:38:38.686Z,5
2017-11-04T06:39:19.239Z,5
2017-11-04T06:39:59.824Z,5
2017-11-04T06:40:40.331Z,5
2017-11-04T06:41:20.868Z,10
2017-11-04T06:42:01.397Z,10
2017-11-04T06:42:41.920Z,10
2017-11-04T06:43:22.543Z,10
2017-11-04T06:44:03.110Z,10
2017-11-04T06:44:43.616Z,10
2017-11-04T06:45:24.172Z,10
2017-11-04T06:46:04.782Z,10
2017-11-04T06:46:45.555Z,10
2017-11-04T06:47:26.011Z,10
2017-11-04T06:48:06.600Z,15
2017-11-04T06:48:47.123Z,15
2017-11-04T06:49:27.741Z,15
2017-11-04T06:50:08.312Z,15
2017-11-04T06:50:48.755Z,15
2017-11-04T06:51:29.305Z,15
2017-11-04T06:52:09.870Z,15
2017-11-04T06:52:50.401Z,15
2017-11-04T06:53:30.950Z,15
2017-11-04T06:54:11.593Z,15
2017-11-04T06:54:52.051Z,15
2017-11-04T06:55:32.617Z,15
2017-11-04T06:56:13.141Z,15
2017-11-04T06:56:53.634Z,15
2017-11-04T06:57:34.167Z,15
2017-11-04T06:58:14.722Z,15
2017-11-04T06:58:55.258Z,15
2017-11-04T06:59:35.749Z,15
2017-11-04T07:00:16.274Z,15
2017-11-04T07:00:56.872Z,15
2017-11-04T07:01:37.373Z,15
2017-11-04T07:02:17.888Z,15
2017-11-04T07:02:58.390Z,15
2017-11-04T07:03:38.951Z,15
2017-11-04T07:04:19.691Z,15
2017-11-04T07:05:00.175Z,15
2017-11-04T07:05:40.745Z,15
2017-11-04T07:06:21.276Z,15
2017-11-04T07:07:01.826Z,15
2017-11-04T07:07:42.405Z,15
2017-11-04T07:08:22.974Z,15
2017-11-04T07:09:03.518Z,15
2017-11-04T07:09:44.055Z,15
2017-11-04T07:10:24.543Z,15
2017-11-04T07:11:05.154Z,15
2017-11-04T07:11:45.653Z,15
2017-11-04T07:12:26.196Z,15
2017-11-04T07:13:06.807Z,15
2017-11-04T07:13:47.377Z,15
2017-11-04T07:14:27.977Z,15
2017-11-04T07:15:08.451Z,15
2017-11-04T07:15:49.037Z,15
2017-11-04T07:16:29.650Z,15
2017-11-04T07:17:10.178Z,15
2017-11-04T07:17:50.690Z,15
2017-11-04T07:18:31.231Z,15
2017-11-04T07:19:11.761Z,15
2017-11-04T07:19:52.277Z,20
2017-11-04T07:20:32.806Z,20
2017-11-04T07:21:13.471Z,20
2017-11-04T07:21:53.995Z,20
2017-11-04T07:22:34.569Z,20
2017-11-04T07:23:15.061Z,25
2017-11-04T07:23:55.575Z,25
2017-11-04T07:24:36.152Z,25
2017-11-04T07:25:16.712Z,25
2017-11-04T07:25:57.237Z,30
2017-11-04T07:26:37.818Z,30
2017-11-04T07:27:18.312Z,30
2017-11-04T07:27:58.877Z,35
2017-11-04T07:28:39.392Z,35
2017-11-04T07:29:19.910Z,35
2017-11-04T07:30:00.509Z,35
2017-11-04T07:30:41.151Z,40
2017-11-04T07:31:21.653Z,40
2017-11-04T07:32:02.220Z,45
2017-11-04T07:32:42.771Z,45
2017-11-04T07:33:23.347Z,50
2017-11-04T07:34:04.056Z,50
2017-11-04T07:34:44.536Z,55
2017-11-04T07:35:25.081Z,55
2017-11-04T07:36:05.633Z,55
2017-11-04T07:36:46.232Z,55
2017-11-04T07:37:26.779Z,60
2017-11-04T07:38:07.406Z,60
2017-11-04T07:38:47.872Z,60
2017-11-04T07:39:28.390Z,65
2017-11-04T07:40:08.947Z,65
2017-11-04T07:40:49.524Z,65
2017-11-04T07:41:30.078Z,70
2017-11-04T07:42:10.576Z,70
2017-11-04T07:42:51.138Z,70
2017-11-04T07:43:31.707Z,70
2017-11-04T07:44:12.214Z,70
2017-11-04T07:44:52.803Z,70
2017-11-04T07:45:33.315Z,70
2017-11-04T07:46:13.875Z,70
2017-11-04T07:46:54.385Z,70
2017-11-04T07:47:34.987Z,75
2017-11-04T07:48:15.704Z,75
2017-11-04T07:48:56.287Z,70
2017-11-04T07:49:36.803Z,70
2017-11-04T07:50:18.058Z,70
2017-11-04T07:50:58.579Z,70
2017-11-04T07:51:39.131Z,70
2017-11-04T07:52:19.676Z,70
2017-11-04T07:53:00.217Z,70
2017-11-04T07:53:40.706Z,70
2017-11-04T07:54:21.254Z,70
2017-11-04T07:55:01.788Z,70
2017-11-04T07:55:42.296Z,70
2017-11-04T07:56:22.865Z,70
2017-11-04T07:57:03.345Z,70
2017-11-04T07:57:43.923Z,70
2017-11-04T07:58:24.427Z,70
2017-11-04T07:59:04.960Z,70
2017-11-04T07:59:45.537Z,70
2017-11-04T08:00:26.071Z,70
2017-11-04T08:01:06.639Z,70
2017-11-04T08:01:47.129Z,65
2017-11-04T08:02:27.729Z,65
2017-11-04T08:03:08.273Z,65
2017-11-04T08:03:48.849Z,65
2017-11-04T08:04:29.456Z,65
2017-11-04T08:05:09.975Z,65
2017-11-04T08:05:50.621Z,65
2017-11-04T08:06:31.082Z,65
2017-11-04T08:07:11.662Z,65
2017-11-04T08:07:52.209Z,65
2017-11-04T08:08:32.737Z,65
2017-11-04T08:09:13.300Z,65
2017-11-04T08:09:53.869Z,65
2017-11-04T08:10:34.570Z,65
2017-11-04T08:11:15.090Z,65
2017-11-04T08:11:55.627Z,65
2017-11-04T08:12:36.285Z,70
2017-11-04T08:13:16.903Z,65
2017-11-04T08:13:57.358Z,60
2017-11-04T08:14:37.943Z,60
2017-11-04T08:15:18.577Z,60
2017-11-04T08:15:59.134Z,60
2017-11-04T08:16:39.643Z,60
2017-11-04T08:17:20.170Z,60
2017-11-04T08:18:00.913Z,60
2017-11-04T08:18:41.449Z,60
2017-11-04T08:19:21.977Z,60
2017-11-04T08:20:02.541Z,65
2017-11-04T08:20:43.166Z,65
2017-11-04T08:21:23.718Z,65
2017-11-04T08:22:04.243Z,65
2017-11-04T08:22:44.860Z,60
2017-11-04T08:23:25.391Z,60
2017-11-04T08:24:05.930Z,65
2017-11-04T08:24:46.523Z,65
2017-11-04T08:25:27.045Z,65
2017-11-04T08:26:07.628Z,65
2017-11-04T08:26:48.075Z,65
2017-11-04T08:27:28.935Z,70
2017-11-04T08:28:09.481Z,70
2017-11-04T08:28:50.143Z,70
2017-11-04T08:29:30.685Z,70
2017-11-04T08:30:11.235Z,70
2017-11-04T08:30:51.794Z,70
2017-11-04T08:31:32.349Z,70
2017-11-04T08:32:12.945Z,75
2017-11-04T08:32:53.480Z,75
2017-11-04T08:33:33.984Z,75
2017-11-04T08:34:14.514Z,80
2017-11-04T08:34:55.094Z,80
2017-11-04T08:35:35.573Z,80
2017-11-04T08:36:16.249Z,85
2017-11-04T08:36:56.795Z,85
2017-11-04T08:37:37.400Z,90
2017-11-04T08:38:18.057Z,90
2017-11-04T08:38:58.484Z,90
2017-11-04T08:39:39.015Z,90
2017-11-04T08:40:19.599Z,95
2017-11-04T08:41:00.208Z,95
2017-11-04T08:41:40.727Z,95
2017-11-04T08:42:21.276Z,95
2017-11-04T08:43:01.877Z,100
2017-11-04T08:43:42.453Z,100
2017-11-04T08:44:23.000Z,100
2017-11-04T08:45:03.536Z,100
2017-11-04T08:45:44.069Z,105
2017-11-04T08:46:24.653Z,100
2017-11-04T08:47:05.204Z,100
2017-11-04T08:47:45.843Z,100
2017-11-04T08:48:26.407Z,100
2017-11-04T08:49:06.973Z,100
2017-11-04T08:49:47.487Z,95
2017-11-04T08:50:27.945Z,95
2017-11-04T08:51:10.857Z,95
2017-11-04T08:51:51.401Z,90
2017-11-04T08:52:31.925Z,90
2017-11-04T08:53:12.478Z,90
2017-11-04T08:53:52.979Z,90
2017-11-04T08:54:33.662Z,90
2017-11-04T08:55:14.206Z,90
2017-11-04T08:55:54.924Z,85
2017-11-04T08:56:35.459Z,85
2017-11-04T08:57:16.014Z,90
2017-11-04T08:57:56.600Z,90
2017-11-04T08:58:37.147Z,90
2017-11-04T08:59:17.698Z,95
2017-11-04T08:59:58.186Z,95
2017-11-04T09:00:38.691Z,100
2017-11-04T09:01:19.264Z,100
2017-11-04T09:01:59.856Z,105
2017-11-04T09:02:40.480Z,105
2017-11-04T09:03:21.057Z,105
2017-11-04T09:04:01.615Z,105
2017-11-04T09:04:42.173Z,110
2017-11-04T09:05:22.685Z,110
2017-11-04T09:06:03.210Z,110
2017-11-04T09:06:43.801Z,115
2017-11-04T09:07:24.336Z,115
2017-11-04T09:08:04.872Z,115
2017-11-04T09:08:45.414Z,120
2017-11-04T09:09:25.963Z,115
2017-11-04T09:10:06.514Z,120
2017-11-04T09:10:47.050Z,120
2017-11-04T09:11:27.598Z,120
2017-11-04T09:12:08.149Z,120
2017-11-04T09:12:48.706Z,120
2017-11-04T09:13:29.267Z,120
2017-11-04T09:14:09.821Z,115
2017-11-04T09:14:50.325Z,115
2017-11-04T09:15:31.102Z,120
2017-11-04T09:16:11.725Z,125
2017-11-04T09:16:52.210Z,125
2017-11-04T09:17:32.748Z,120
2017-11-04T09:18:13.262Z,120
2017-11-04T09:18:53.937Z,115
2017-11-04T09:19:34.378Z,115
2017-11-04T09:20:14.952Z,115
2017-11-04T09:20:55.524Z,120
2017-11-04T09:21:36.055Z,115
2017-11-04T09:22:16.811Z,115
2017-11-04T09:22:57.257Z,110
2017-11-04T09:23:38.640Z,115
2017-11-04T09:24:18.458Z,115
2017-11-04T09:24:58.979Z,115
2017-11-04T09:25:39.523Z,115
2017-11-04T09:26:20.100Z,115
2017-11-04T09:27:00.693Z,115
2017-11-04T09:27:41.194Z,115
2017-11-04T09:28:21.797Z,110
2017-11-04T09:29:02.310Z,115
2017-11-04T09:29:42.848Z,115
2017-11-04T09:30:23.388Z,110
2017-11-04T09:31:04.266Z,110
2017-11-04T09:31:44.806Z,115
2017-11-04T09:32:25.354Z,115
2017-11-04T09:33:05.853Z,115
2017-11-04T09:33:46.463Z,115
2017-11-04T09:34:27.002Z,115
2017-11-04T09:35:07.514Z,115
2017-11-04T09:35:48.081Z,115
2017-11-04T09:36:28.593Z,115
2017-11-04T09:37:09.165Z,115
2017-11-04T09:37:49.721Z,120
2017-11-04T09:38:30.333Z,120
2017-11-04T09:39:10.781Z,120
2017-11-04T09:39:51.427Z,115
2017-11-04T09:40:32.067Z,115
2017-11-04T09:41:12.653Z,120
2017-11-04T09:41:53.275Z,120
2017-11-04T09:42:33.989Z,120
2017-11-04T09:43:14.555Z,115
2017-11-04T09:43:55.096Z,115
2017-11-04T09:44:35.650Z,115
2017-11-04T09:45:16.207Z,115
2017-11-04T09:45:56.733Z,115
2017-11-04T09:46:37.244Z,115
2017-11-04T09:47:17.805Z,120
2017-11-04T09:47:58.485Z,115
2017-11-04T09:48:39.004Z,115
2017-11-04T09:49:19.625Z,115
2017-11-04T09:50:00.149Z,115
2017-11-04T09:50:40.703Z,115